createdAt,value
2018-10-02T00:02:04.387Z,97812.95
2018-10-02T00:04:32.000Z,97816.67
2018-10-02T00:06:59.644Z,97811.84
2018-10-02T00:09:27.313Z,97818.87
2018-10-02T00:12:00.231Z,97824.50
2018-10-02T00:14:29.416Z,97827.96
2018-10-02T00:16:57.368Z,97827.96
2018-10-02T00:19:25.012Z,97825.05
2018-10-02T00:21:52.644Z,97822.05
2018-10-02T00:24:20.445Z,97819.67
2018-10-02T00:26:48.137Z,97814.37
2018-10-02T00:29:16.084Z,97796.16
2018-10-02T00:31:43.760Z,97810.34
2018-10-02T00:34:11.661Z,97817.90
2018-10-02T00:36:39.602Z,97812.76
2018-10-02T00:39:07.313Z,97812.52
2018-10-02T00:41:34.993Z,97827.37
2018-10-02T00:44:02.637Z,97823.03
2018-10-02T00:46:30.543Z,97825.72
2018-10-02T00:48:58.210Z,97822.97
2018-10-02T00:51:25.853Z,97825.16
2018-10-02T00:53:53.474Z,97823.50
2018-10-02T00:56:21.105Z,97827.30
2018-10-02T00:58:48.717Z,97823.81
2018-10-02T01:01:16.451Z,97824.69
2018-10-02T01:03:44.086Z,97823.58
2018-10-02T01:06:11.738Z,97826.56
2018-10-02T01:08:39.406Z,97829.02
2018-10-02T01:11:07.046Z,97834.93
2018-10-02T01:13:34.688Z,97829.55
2018-10-02T01:16:02.321Z,97832.24
2018-10-02T01:18:29.955Z,97828.21
2018-10-02T01:20:57.610Z,97827.10
2018-10-02T01:23:25.237Z,97833.89
2018-10-02T01:25:52.862Z,97835.50
2018-10-02T01:28:20.521Z,97829.86
2018-10-02T01:30:48.321Z,97825.83
2018-10-02T01:33:15.953Z,97833.89
2018-10-02T01:35:43.564Z,97832.55
2018-10-02T01:38:11.214Z,97829.86
2018-10-02T01:40:38.832Z,97835.84
2018-10-02T01:43:06.452Z,97830.16
2018-10-02T01:45:34.085Z,97832.38
2018-10-02T01:48:01.863Z,97836.11
2018-10-02T01:50:29.510Z,97833.72
2018-10-02T01:52:57.133Z,97832.08
2018-10-02T01:55:24.779Z,97836.87
2018-10-02T01:57:52.441Z,97837.18
2018-10-02T02:00:20.085Z,97839.63
2018-10-02T02:02:47.749Z,97840.74
2018-10-02T02:05:15.393Z,97848.30
2018-10-02T02:07:43.018Z,97846.11
2018-10-02T02:10:10.657Z,97852.83
2018-10-02T02:12:38.324Z,97855.21
2018-10-02T02:15:05.945Z,97851.48
2018-10-02T02:17:33.733Z,97854.71
2018-10-02T02:20:01.365Z,97859.28
2018-10-02T02:22:28.989Z,97850.48
2018-10-02T02:24:56.593Z,97851.52
2018-10-02T02:27:24.254Z,97858.81
2018-10-02T02:29:51.896Z,97860.69
2018-10-02T02:32:19.814Z,97861.49
2018-10-02T02:34:47.449Z,97864.72
2018-10-02T02:37:15.124Z,97862.03
2018-10-02T02:39:42.737Z,97865.02
2018-10-02T02:42:10.404Z,97873.08
2018-10-02T02:44:38.050Z,97868.81
2018-10-02T02:47:11.028Z,97872.27
2018-10-02T02:49:44.024Z,97876.30
2018-10-02T02:52:12.551Z,97878.98
2018-10-02T02:54:40.165Z,97878.21
2018-10-02T02:57:07.814Z,97878.98
2018-10-02T02:59:35.432Z,97875.02
2018-10-02T03:02:03.099Z,97874.48
2018-10-02T03:04:30.735Z,97869.89
2018-10-02T03:06:58.364Z,97870.69
2018-10-02T03:09:26.030Z,97873.45
2018-10-02T03:11:53.678Z,97876.36
2018-10-02T03:14:21.320Z,97883.08
2018-10-02T03:16:48.981Z,97882.58
2018-10-02T03:19:16.658Z,97891.20
2018-10-02T03:21:44.346Z,97891.98
2018-10-02T03:24:11.951Z,97896.00
2018-10-02T03:26:39.619Z,97900.34
2018-10-02T03:29:07.354Z,97905.17
2018-10-02T03:31:34.981Z,97906.27
2018-10-02T03:34:02.608Z,97908.39
2018-10-02T03:36:30.234Z,97907.62
2018-10-02T03:38:57.865Z,97911.34
2018-10-02T03:41:25.492Z,97915.14
2018-10-02T03:43:53.144Z,97909.27
2018-10-02T03:46:20.784Z,97903.36
2018-10-02T03:48:48.535Z,97908.96
2018-10-02T03:51:16.089Z,97910.61
2018-10-02T03:53:43.733Z,97912.52
2018-10-02T03:56:11.392Z,97917.59
2018-10-02T03:58:39.036Z,97923.50
2018-10-02T04:01:06.666Z,97920.30
2018-10-02T04:03:34.354Z,97918.66
2018-10-02T04:06:02.006Z,97921.34
2018-10-02T04:08:29.641Z,97932.39
2018-10-02T04:10:57.301Z,97932.69
2018-10-02T04:13:24.931Z,97938.33
2018-10-02T04:15:52.566Z,97934.03
2018-10-02T04:18:20.193Z,97936.72
2018-10-02T04:20:47.844Z,97940.51
2018-10-02T04:23:15.506Z,97942.89
2018-10-02T04:25:43.136Z,97943.19
2018-10-02T04:28:10.837Z,97945.88
2018-10-02T04:30:38.433Z,97945.34
2018-10-02T04:33:06.129Z,97952.29
2018-10-02T04:35:33.773Z,97959.55
2018-10-02T04:38:01.411Z,97961.19
2018-10-02T04:40:29.101Z,97961.45
2018-10-02T04:42:56.724Z,97958.50
2018-10-02T04:45:24.453Z,97960.41
2018-10-02T04:47:53.827Z,97954.47
2018-10-02T04:50:21.802Z,97951.02
2018-10-02T04:52:49.438Z,97951.07
2018-10-02T04:55:17.070Z,97953.99
2018-10-02T04:57:44.714Z,97959.90
2018-10-02T05:00:12.350Z,97958.56
2018-10-02T05:02:40.019Z,97964.80
2018-10-02T05:05:07.685Z,97971.20
2018-10-02T05:07:35.322Z,97968.82
2018-10-02T05:10:02.982Z,97972.28
2018-10-02T05:12:30.626Z,97972.28
2018-10-02T05:14:58.320Z,97965.87
2018-10-02T05:17:25.951Z,97968.82
2018-10-02T05:19:53.606Z,97968.55
2018-10-02T05:22:21.241Z,97968.31
2018-10-02T05:24:48.868Z,97965.09
2018-10-02T05:27:16.566Z,97976.13
2018-10-02T05:29:44.177Z,97981.50
2018-10-02T05:32:11.884Z,97979.35
2018-10-02T05:34:39.518Z,97977.47
2018-10-02T05:37:07.155Z,97973.98
2018-10-02T05:39:34.798Z,97980.70
2018-10-02T05:42:02.437Z,97979.59
2018-10-02T05:44:30.057Z,97982.34
2018-10-02T05:46:57.692Z,97980.45
2018-10-02T05:49:25.357Z,97981.23
2018-10-02T05:51:53.001Z,97982.58
2018-10-02T05:54:20.642Z,97981.50
2018-10-02T05:56:48.311Z,97989.05
2018-10-02T05:59:15.965Z,97988.75
2018-10-02T06:01:43.640Z,97990.09
2018-10-02T06:04:11.285Z,97993.38
2018-10-02T06:06:38.921Z,97997.11
2018-10-02T06:09:07.952Z,98004.33
2018-10-02T06:11:35.594Z,98011.81
2018-10-02T06:14:03.238Z,98013.96
2018-10-02T06:16:30.865Z,98012.62
2018-10-02T06:18:58.473Z,98013.45
2018-10-02T06:21:26.101Z,98025.53
2018-10-02T06:23:53.737Z,98024.70
2018-10-02T06:26:21.391Z,98028.19
2018-10-02T06:28:49.019Z,98032.75
2018-10-02T06:31:16.642Z,98037.29
2018-10-02T06:33:44.290Z,98034.31
2018-10-02T06:36:11.930Z,98042.95
2018-10-02T06:38:39.700Z,98033.80
2018-10-02T06:41:07.266Z,98032.70
2018-10-02T06:43:34.949Z,98037.23
2018-10-02T06:46:02.578Z,98031.45
2018-10-02T06:48:30.215Z,98030.49
2018-10-02T06:50:57.924Z,98031.92
2018-10-02T06:53:25.549Z,98032.37
2018-10-02T06:55:53.206Z,98031.27
2018-10-02T06:58:20.850Z,98038.48
2018-10-02T07:00:48.705Z,98044.66
2018-10-02T07:03:16.359Z,98047.36
2018-10-02T07:05:43.973Z,98045.20
2018-10-02T07:08:11.612Z,98050.81
2018-10-02T07:10:39.239Z,98051.83
2018-10-02T07:13:06.890Z,98056.63
2018-10-02T07:15:34.528Z,98051.38
2018-10-02T07:18:02.162Z,98045.50
2018-10-02T07:20:29.803Z,98053.33
2018-10-02T07:22:57.433Z,98051.63
2018-10-02T07:25:25.096Z,98056.97
2018-10-02T07:27:52.823Z,98055.89
2018-10-02T07:30:20.390Z,98048.31
2018-10-02T07:32:48.052Z,98042.49
2018-10-02T07:35:15.668Z,98043.56
2018-10-02T07:37:43.562Z,98043.69
2018-10-02T07:40:11.190Z,98045.62
2018-10-02T07:42:38.830Z,98050.13
2018-10-02T07:45:06.594Z,98052.81
2018-10-02T07:47:34.241Z,98053.68
2018-10-02T07:50:01.856Z,98059.83
2018-10-02T07:52:29.514Z,98053.38
2018-10-02T07:54:57.177Z,98055.92
2018-10-02T07:57:24.810Z,98056.91
2018-10-02T07:59:52.484Z,98064.06
2018-10-02T08:02:20.146Z,98067.14
2018-10-02T08:04:47.805Z,98063.38
2018-10-02T08:07:15.450Z,98075.29
2018-10-02T08:09:43.088Z,98078.86
2018-10-02T08:12:10.823Z,98072.59
2018-10-02T08:14:38.441Z,98075.26
2018-10-02T08:17:06.101Z,98079.16
2018-10-02T08:19:33.724Z,98074.44
2018-10-02T08:22:01.388Z,98065.56
2018-10-02T08:24:29.005Z,98065.29
2018-10-02T08:26:56.709Z,98064.99
2018-10-02T08:29:24.393Z,98071.68
2018-10-02T08:31:51.956Z,98067.73
2018-10-02T08:34:19.585Z,98071.02
2018-10-02T08:36:47.224Z,98071.41
2018-10-02T08:39:14.879Z,98066.01
2018-10-02T08:41:42.566Z,98073.11
2018-10-02T08:44:10.197Z,98061.38
2018-10-02T08:46:37.878Z,98067.35
2018-10-02T08:49:05.534Z,98063.38
2018-10-02T08:51:33.202Z,98065.02
2018-10-02T08:54:00.875Z,98061.86
2018-10-02T08:56:28.492Z,98066.19
2018-10-02T08:58:56.122Z,98062.52
2018-10-02T09:01:23.755Z,98062.48
2018-10-02T09:03:51.386Z,98053.17
2018-10-02T09:06:19.039Z,98045.27
2018-10-02T09:08:46.670Z,98049.30
2018-10-02T09:11:14.304Z,98052.56
2018-10-02T09:13:42.012Z,98046.60
2018-10-02T09:16:09.694Z,98039.30
2018-10-02T09:18:37.343Z,98038.04
2018-10-02T09:21:04.957Z,98035.36
2018-10-02T09:23:32.657Z,98038.42
2018-10-02T09:26:00.303Z,98044.06
2018-10-02T09:28:27.992Z,98049.89
2018-10-02T09:31:01.043Z,98042.06
2018-10-02T09:34:34.848Z,98048.57
2018-10-02T09:37:08.004Z,98053.55
2018-10-02T09:39:41.001Z,98050.56
2018-10-02T09:42:13.665Z,98045.55
2018-10-02T09:44:41.328Z,98042.80
2018-10-02T09:47:08.948Z,98042.44
2018-10-02T09:49:36.671Z,98048.12
2018-10-02T09:52:04.304Z,98040.63
2018-10-02T09:54:31.961Z,98035.48
2018-10-02T09:56:59.658Z,98032.56
2018-10-02T09:59:27.292Z,98032.20
2018-10-02T10:02:00.302Z,98020.31
2018-10-02T10:04:27.924Z,98013.59
2018-10-02T10:06:55.590Z,98016.88
2018-10-02T10:09:23.233Z,98020.91
2018-10-02T10:11:50.890Z,98015.58
2018-10-02T10:14:18.532Z,98021.36
2018-10-02T10:16:46.345Z,98019.74
2018-10-02T10:19:13.805Z,98017.02
2018-10-02T10:21:41.442Z,98013.46
2018-10-02T10:24:09.074Z,98014.33
2018-10-02T10:26:36.741Z,98015.17
2018-10-02T10:29:04.442Z,98012.78
2018-10-02T10:31:32.062Z,98007.95
2018-10-02T10:34:00.072Z,98006.13
2018-10-02T10:36:27.702Z,98009.30
2018-10-02T10:38:55.316Z,98014.97
2018-10-02T10:41:22.954Z,98011.68
2018-10-02T10:43:50.580Z,98019.27
2018-10-02T10:46:18.184Z,98016.08
2018-10-02T10:48:45.825Z,98000.49
2018-10-02T10:51:13.464Z,98003.18
2018-10-02T10:53:41.076Z,98004.52
2018-10-02T10:56:08.722Z,98013.39
2018-10-02T10:58:36.359Z,97997.50
2018-10-02T11:01:04.002Z,98004.79
2018-10-02T11:03:31.661Z,98000.45
2018-10-02T11:05:59.327Z,98004.52
2018-10-02T11:08:26.970Z,97999.41
2018-10-02T11:10:54.616Z,98000.76
2018-10-02T11:13:22.266Z,98002.10
2018-10-02T11:15:49.906Z,98004.52
2018-10-02T11:18:17.537Z,97998.01
2018-10-02T11:20:45.248Z,98002.84
2018-10-02T11:23:12.874Z,97992.94
2018-10-02T11:25:40.530Z,97989.44
2018-10-02T11:28:08.161Z,97981.08
2018-10-02T11:30:35.798Z,97989.34
2018-10-02T11:33:03.419Z,97987.19
2018-10-02T11:35:31.147Z,97983.46
2018-10-02T11:37:58.764Z,97983.46
2018-10-02T11:40:26.410Z,97969.86
2018-10-02T11:42:54.154Z,97965.02
2018-10-02T11:45:21.903Z,97966.06
2018-10-02T11:47:49.543Z,97955.55
2018-10-02T11:50:17.164Z,97959.58
2018-10-02T11:52:44.781Z,97953.66
2018-10-02T11:55:12.462Z,97950.47
2018-10-02T11:57:40.180Z,97951.81
2018-10-02T12:00:08.026Z,97953.16
2018-10-02T12:02:35.722Z,97939.42
2018-10-02T12:05:03.330Z,97926.48
2018-10-02T12:07:30.968Z,97928.94
2018-10-02T12:09:58.588Z,97927.03
2018-10-02T12:12:26.243Z,97924.30
2018-10-02T12:14:53.945Z,97926.25
2018-10-02T12:17:21.526Z,97925.98
2018-10-02T12:19:49.397Z,97930.59
2018-10-02T12:22:16.808Z,97934.85
2018-10-02T12:24:44.434Z,97933.81
2018-10-02T12:27:12.086Z,97922.56
2018-10-02T12:29:39.785Z,97923.13
2018-10-02T12:32:07.498Z,97919.64
2018-10-02T12:34:35.134Z,97925.86
2018-10-02T12:37:02.765Z,97922.94
2018-10-02T12:39:30.398Z,97915.24
2018-10-02T12:41:58.049Z,97920.92
2018-10-02T12:44:25.687Z,97913.63
2018-10-02T12:46:53.511Z,97909.13
2018-10-02T12:49:21.162Z,97910.48
2018-10-02T12:51:48.788Z,97906.18
2018-10-02T12:54:16.421Z,97902.42
2018-10-02T12:56:44.050Z,97899.16
2018-10-02T12:59:11.694Z,97891.06
2018-10-02T13:01:39.366Z,97884.65
2018-10-02T13:04:07.154Z,97885.92
2018-10-02T13:06:34.938Z,97882.70
2018-10-02T13:09:02.634Z,97876.83
2018-10-02T13:11:30.274Z,97876.02
2018-10-02T13:13:57.909Z,97883.30
2018-10-02T13:16:25.560Z,97884.65
2018-10-02T13:18:53.247Z,97886.77
2018-10-02T13:21:20.918Z,97882.50
2018-10-02T13:23:48.550Z,97878.97
2018-10-02T13:26:16.185Z,97886.53
2018-10-02T13:28:43.833Z,97888.41
2018-10-02T13:31:11.646Z,97882.27
2018-10-02T13:33:39.293Z,97880.85
2018-10-02T13:36:07.333Z,97877.13
2018-10-02T13:38:34.982Z,97877.13
2018-10-02T13:41:02.627Z,97873.91
2018-10-02T13:43:30.297Z,97868.03
2018-10-02T13:45:57.976Z,97871.22
2018-10-02T13:48:25.607Z,97876.32
2018-10-02T13:50:53.243Z,97879.81
2018-10-02T13:53:20.890Z,97880.92
2018-10-02T13:55:48.531Z,97876.59
2018-10-02T13:58:16.181Z,97868.27
2018-10-02T14:00:43.805Z,97870.41
2018-10-02T14:03:11.488Z,97864.23
2018-10-02T14:05:39.128Z,97859.66
2018-10-02T14:08:06.761Z,97851.37
2018-10-02T14:10:34.423Z,97845.73
2018-10-02T14:13:02.052Z,97850.03
2018-10-02T14:15:29.701Z,97851.10
2018-10-02T14:17:57.336Z,97857.82
2018-10-02T14:20:25.029Z,97860.27
2018-10-02T14:22:52.906Z,97854.97
2018-10-02T14:25:20.555Z,97860.81
2018-10-02T14:27:48.253Z,97855.50
2018-10-02T14:30:15.917Z,97861.11
2018-10-02T14:32:43.549Z,97861.42
2018-10-02T14:35:11.194Z,97866.02
2018-10-02T14:37:38.865Z,97864.91
2018-10-02T14:40:06.537Z,97862.45
2018-10-02T14:42:34.153Z,97857.16
2018-10-02T14:45:01.785Z,97860.95
2018-10-02T14:47:29.548Z,97856.34
2018-10-02T14:49:57.184Z,97855.31
2018-10-02T14:52:24.813Z,97852.63
2018-10-02T14:54:52.473Z,97846.17
2018-10-02T14:57:20.109Z,97854.30
2018-10-02T14:59:47.761Z,97848.43
2018-10-02T15:02:15.392Z,97850.58
2018-10-02T15:04:43.048Z,97838.79
2018-10-02T15:07:10.777Z,97838.19
2018-10-02T15:09:38.422Z,97831.20
2018-10-02T15:12:06.181Z,97831.20
2018-10-02T15:14:33.763Z,97829.86
2018-10-02T15:17:01.406Z,97825.53
2018-10-02T15:19:29.038Z,97817.23
2018-10-02T15:21:56.667Z,97814.31
2018-10-02T15:24:24.301Z,97810.52
2018-10-02T15:26:52.567Z,97721.98
2018-10-02T15:29:20.228Z,97813.51
2018-10-02T15:31:47.877Z,97805.22
2018-10-02T15:34:15.630Z,97808.94
2018-10-02T15:36:43.256Z,97797.93
2018-10-02T15:39:11.373Z,97792.83
2018-10-02T15:41:39.622Z,97799.54
2018-10-02T15:44:07.297Z,97806.56
2018-10-02T15:46:34.950Z,97798.50
2018-10-02T15:49:02.638Z,97799.58
2018-10-02T15:51:30.265Z,97794.28
2018-10-02T15:53:57.938Z,97792.09
2018-10-02T15:56:26.108Z,97791.09
2018-10-02T15:58:53.835Z,97793.23
2018-10-02T16:01:21.514Z,97786.29
2018-10-02T16:03:49.170Z,97783.34
2018-10-02T16:06:16.807Z,97790.31
2018-10-02T16:08:44.477Z,97787.63
2018-10-02T16:11:12.145Z,97785.25
2018-10-02T16:13:39.769Z,97793.00
2018-10-02T16:16:07.429Z,97792.20
2018-10-02T16:18:35.067Z,97785.48
2018-10-02T16:21:02.710Z,97790.78
2018-10-02T16:23:30.346Z,97792.13
2018-10-02T16:25:57.969Z,97785.72
2018-10-02T16:28:25.613Z,97796.30
2018-10-02T16:30:53.242Z,97795.42
2018-10-02T16:33:20.902Z,97795.69
2018-10-02T16:35:48.524Z,97800.33
2018-10-02T16:38:16.177Z,97805.94
2018-10-02T16:40:43.865Z,97805.94
2018-10-02T16:43:11.501Z,97811.61
2018-10-02T16:45:39.177Z,97811.38
2018-10-02T16:48:06.809Z,97817.52
2018-10-02T16:50:34.441Z,97815.14
2018-10-02T16:53:02.079Z,97820.51
2018-10-02T16:55:29.721Z,97812.22
2018-10-02T16:57:57.480Z,97811.91
2018-10-02T17:00:25.127Z,97810.80
2018-10-02T17:02:52.773Z,97811.91
2018-10-02T17:05:20.411Z,97809.23
2018-10-02T17:07:48.079Z,97816.78
2018-10-02T17:10:15.774Z,97812.22
2018-10-02T17:12:43.406Z,97806.61
2018-10-02T17:15:11.074Z,97799.33
2018-10-02T17:17:38.715Z,97801.55
2018-10-02T17:20:06.931Z,97796.41
2018-10-02T17:22:34.629Z,97798.55
2018-10-02T17:25:02.274Z,97809.03
2018-10-02T17:27:29.928Z,97819.27
2018-10-02T17:29:57.659Z,97827.83
2018-10-02T17:32:25.290Z,97843.17
2018-10-02T17:34:52.925Z,97840.48
2018-10-02T17:37:20.561Z,97844.21
2018-10-02T17:39:48.201Z,97843.67
2018-10-02T17:42:15.854Z,97853.38
2018-10-02T17:44:43.474Z,97851.22
2018-10-02T17:47:11.327Z,97848.00
2018-10-02T17:49:38.971Z,97844.78
2018-10-02T17:52:06.854Z,97853.68
2018-10-02T17:54:34.485Z,97859.59
2018-10-02T17:57:02.120Z,97862.73
2018-10-02T17:59:29.744Z,97864.92
2018-10-02T18:01:57.400Z,97856.30
2018-10-02T18:04:25.009Z,97860.16
2018-10-02T18:06:52.769Z,97872.78
2018-10-02T18:09:20.421Z,97881.06
2018-10-02T18:11:48.139Z,97880.83
2018-10-02T18:14:15.761Z,97878.95
2018-10-02T18:16:43.409Z,97889.92
2018-10-02T18:19:11.036Z,97884.33
2018-10-02T18:21:38.741Z,97887.01
2018-10-02T18:24:06.326Z,97891.57
2018-10-02T18:26:34.010Z,97878.75
2018-10-02T18:29:01.635Z,97887.04
2018-10-02T18:31:29.271Z,97880.33
2018-10-02T18:33:56.893Z,97892.41
2018-10-02T18:36:24.529Z,97887.91
2018-10-02T18:38:52.234Z,97881.44
2018-10-02T18:41:19.821Z,97879.86
2018-10-02T18:43:47.490Z,97883.88
2018-10-02T18:46:15.125Z,97884.42
2018-10-02T18:48:42.783Z,97896.50
2018-10-02T18:51:10.398Z,97897.55
2018-10-02T18:53:38.082Z,97902.91
2018-10-02T18:56:05.767Z,97895.97
2018-10-02T18:58:33.397Z,97902.68
2018-10-02T19:01:01.046Z,97904.26
2018-10-02T19:03:28.837Z,97899.19
2018-10-02T19:05:56.475Z,97903.72
2018-10-02T19:08:29.510Z,97914.77
2018-10-02T19:11:01.357Z,97915.53
2018-10-02T19:13:29.233Z,97919.09
2018-10-02T19:16:02.177Z,97930.06
2018-10-02T19:18:29.833Z,97929.26
2018-10-02T19:20:57.487Z,97933.05
2018-10-02T19:23:25.113Z,97926.34
2018-10-02T19:25:58.122Z,97947.58
2018-10-02T19:28:25.761Z,97934.96
2018-10-02T19:30:58.727Z,97936.03
2018-10-02T19:33:26.357Z,97937.88
2018-10-02T19:35:54.009Z,97952.95
2018-10-02T19:38:27.050Z,97950.03
2018-10-02T19:40:54.697Z,97950.27
2018-10-02T19:43:22.329Z,97953.19
2018-10-02T19:45:55.382Z,97940.93
2018-10-02T19:48:23.038Z,97944.39
2018-10-02T19:50:50.666Z,97951.37
2018-10-02T19:53:18.294Z,97947.34
2018-10-02T19:55:45.913Z,97950.03
2018-10-02T19:58:13.533Z,97951.10
2018-10-02T20:00:41.163Z,97950.33
2018-10-02T20:03:08.821Z,97949.77
2018-10-02T20:05:36.444Z,97952.20
2018-10-02T20:08:04.098Z,97955.43
2018-10-02T20:10:31.726Z,97949.77
2018-10-02T20:12:59.385Z,97953.55
2018-10-02T20:15:27.045Z,97947.08
2018-10-02T20:17:54.667Z,97947.94
2018-10-02T20:20:22.333Z,97949.52
2018-10-02T20:22:49.980Z,97951.10
2018-10-02T20:25:17.613Z,97948.24
2018-10-02T20:27:45.249Z,97955.12
2018-10-02T20:30:12.886Z,97950.86
2018-10-02T20:32:40.535Z,97962.41
2018-10-02T20:35:08.178Z,97958.41
2018-10-02T20:37:35.818Z,97955.19
2018-10-02T20:40:03.461Z,97962.44
2018-10-02T20:42:31.130Z,97967.57
2018-10-02T20:44:58.771Z,97962.70
2018-10-02T20:47:26.391Z,97960.02
2018-10-02T20:49:54.056Z,97955.19
2018-10-02T20:52:21.685Z,97957.07
2018-10-02T20:54:49.323Z,97948.54
2018-10-02T20:57:16.966Z,97954.69
2018-10-02T20:59:44.618Z,97964.89
2018-10-02T21:02:12.254Z,97968.41
2018-10-02T21:04:39.872Z,97964.65
2018-10-02T21:07:07.583Z,97975.63
2018-10-02T21:09:35.184Z,97975.86
2018-10-02T21:12:02.853Z,97967.63
2018-10-02T21:14:30.572Z,97965.99
2018-10-02T21:16:58.162Z,97961.45
2018-10-02T21:19:25.804Z,97943.70
2018-10-02T21:21:53.510Z,97957.97
2018-10-02T21:24:21.104Z,97961.97
2018-10-02T21:26:48.775Z,97960.35
2018-10-02T21:29:16.436Z,97952.06
2018-10-02T21:31:44.176Z,97952.06
2018-10-02T21:34:11.756Z,97940.22
2018-10-02T21:36:39.384Z,97947.29
2018-10-02T21:39:08.059Z,97941.63
2018-10-02T21:41:35.716Z,97952.12
2018-10-02T21:44:03.350Z,97935.20
2018-10-02T21:46:31.018Z,97932.22
2018-10-02T21:48:58.656Z,97942.16
2018-10-02T21:51:26.341Z,97930.88
2018-10-02T21:53:53.961Z,97933.06
2018-10-02T21:56:21.592Z,97944.61
2018-10-02T21:58:49.227Z,97941.86
2018-10-02T22:01:16.853Z,97936.84
2018-10-02T22:03:44.542Z,97943.02
2018-10-02T22:06:12.174Z,97941.68
2018-10-02T22:08:39.837Z,97941.92
2018-10-02T22:11:07.462Z,97934.97
2018-10-02T22:13:35.135Z,97933.63
2018-10-02T22:16:02.764Z,97938.73
2018-10-02T22:18:30.422Z,97940.07
2018-10-02T22:20:58.122Z,97945.70
2018-10-02T22:23:25.917Z,97943.05
2018-10-02T22:25:53.567Z,97944.09
2018-10-02T22:28:21.194Z,97939.53
2018-10-02T22:30:48.823Z,97937.15
2018-10-02T22:33:16.530Z,97940.37
2018-10-02T22:35:44.115Z,97943.63
2018-10-02T22:38:11.766Z,97950.63
2018-10-02T22:40:39.425Z,97954.59
2018-10-02T22:43:07.068Z,97950.57
2018-10-02T22:45:34.720Z,97944.69
2018-10-02T22:48:02.354Z,97948.13
2018-10-02T22:50:30.884Z,97942.22
2018-10-02T22:52:58.499Z,97939.30
2018-10-02T22:55:26.209Z,97930.20
2018-10-02T22:57:53.824Z,97950.33
2018-10-02T23:00:21.467Z,97945.73
2018-10-02T23:02:49.084Z,97943.86
2018-10-02T23:05:16.733Z,97956.47
2018-10-02T23:07:44.366Z,97948.72
2018-10-02T23:10:12.012Z,97947.67
2018-10-02T23:12:39.634Z,97942.06
2018-10-02T23:15:07.283Z,97939.83
2018-10-02T23:17:35.004Z,97943.92
2018-10-02T23:20:02.666Z,97933.19
2018-10-02T23:22:30.297Z,97932.14
2018-10-02T23:24:57.984Z,97932.91
2018-10-02T23:27:25.625Z,97929.69
2018-10-02T23:29:53.305Z,97930.23
2018-10-02T23:32:21.005Z,97929.19
2018-10-02T23:34:48.617Z,97930.53
2018-10-02T23:37:16.321Z,97936.70
2018-10-02T23:39:43.962Z,97934.83
2018-10-02T23:42:11.634Z,97935.36
2018-10-02T23:44:39.261Z,97938.84
2018-10-02T23:47:06.905Z,97947.73
2018-10-02T23:49:34.558Z,97944.81
2018-10-02T23:52:02.194Z,97952.80
2018-10-02T23:54:29.826Z,97954.95
2018-10-02T23:56:57.457Z,97947.73
2018-10-02T23:59:25.092Z,97955.25
